Airfield :
LOGIN :

Register | Disclaimer

   EN    FR    IT 

 










Legend :    VFR   Marginal VFR   IFR   Intensive IFR   Very Intensive IFR
Visi :
Ceiling :
>= 8 km
>= 3000ft
5 to 8 km
1000 to 3000 ft
1500m to 5 km
500 to 1000 ft
800 to 1500m
200 to 500 ft
< 800m
< 200 ft
Symbols :   Thunderstorms  Fog  Heavy snow  Heavy precipitations  Wind > 20 kt
SIGMETs :     Misc.  Thunderstorms  Icing  Turbulence  Mountain Waves  Volcanic Ashes






- Airport Elevation : 27 ft
- IATA code : PMI


LEPA - Palma de Mallorca

CURRENT METAR :
  • 151830Z VRB02KT 9999 FEW028 18/09 Q1019 NOSIG

EXPIRED METARs :
  • 151800Z 31004KT 9999 FEW020 18/09 Q1019 NOSIG
  • 151730Z 32005KT 260V010 9999 FEW020 19/08 Q1019 NOSIG
  • 151700Z 32007KT 250V360 9999 FEW020 20/09 Q1018 NOSIG
  • 151630Z 31008G18KT 280V340 9999 FEW020 20/09 Q1018 NOSIG
  • 151600Z 33009KT 260V350 9999 FEW020 21/09 Q1018 NOSIG

TAF TAF LEPA
Valid from the 15 at 18:00 until the 16 at 18:00 UTC


151700Z 1518/1618 34005KT 9999 FEW020 TX24/1612Z TN12/1606Z
BECMG 1608/1610 21008KT



MET'MAP, your aeronautical weather chart ! - Copyright ORBIFLY December 2007 - Disclaimer

ORBIFLY MET'MAP TEAM :

Programming & Development : Alexandra Zaïnal
Concept & Development : Baudouin d'Aumeries
Co-Development & Prog : Marc-Olivier Méhu
Technical & hardware support : Manuel Goepfert

Contact : metmap@orbifly.com




SOURCES & CREDITS :

   NOAA